Aeroboteco Virtual Airlines! Uma nuvem a frente.



 INFORMAÇÕES METEOROLÓGICAS
METAR FOR SURV
ADDS - METARS form results

(1534 UTC 21 March 2019)
Data provider http://aviationweather.gov/metar/data/
 
Forecast for: SURV (RIVERA , UY)
Text: TAF SURV 210515Z 2106/2206 16005KT 9999 SCT020 TX21/2118Z TN10/2109Z
Forecast period: 0600 UTC 21 March 2019 to 0600 UTC 22 March 2019
Forecast type: FROM: standard forecast or significant change
Winds: from the SSE (160 degrees) at 6 MPH (5 knots; 2.6 m/s)
Visibility: 6 or more miles 10+ km)
Ceiling: at least 12,000 feet AGL
Clouds: scattered clouds at 2000 feet AGL
Weather: no significant weather forecast for this period

 MAPA DO AEROPORTO

 INFORMAÇÕES DA PISTA
Pista 05 Tamanho da pista 6004 ft Largura da pista 0 ft
Elevação da pista 669 ft Ranhura da pista 0 ft Proa da pista 0
Pista 23 Tamanho da pista 6004 ft Largura da pista 0 ft
Elevação da pista 719 ft Ranhura da pista 0 ft Proa da pista 0

 FREQUÊNCIAS DO AEROPORTO

 AUXÍLIOS DE NAVEGAÇÃO PRÓXIMOS AO AEROPORTO
Tipo NDB Nome Rivera Frequência 260 KHZ
Tipo NDB Nome Rivera Frequência 305 KHZ